sensor_id;sensor_type;location;lat;lon;timestamp;pressure;altitude;pressure_sealevel;temperature;humidity
78675;BME280;67990;59.826;30.108;2023-02-28T00:00:19;101268.44;;;3.58;71.27
78675;BME280;67990;59.826;30.108;2023-02-28T00:02:46;101266.00;;;3.72;70.52
78675;BME280;67990;59.826;30.108;2023-02-28T00:05:15;101256.69;;;3.68;70.73
78675;BME280;67990;59.826;30.108;2023-02-28T00:07:43;101255.47;;;3.58;71.03
78675;BME280;67990;59.826;30.108;2023-02-28T00:10:14;101254.22;;;3.82;70.70
78675;BME280;67990;59.826;30.108;2023-02-28T00:12:41;101252.69;;;3.78;70.41
78675;BME280;67990;59.826;30.108;2023-02-28T00:15:10;101244.69;;;3.83;70.04
78675;BME280;67990;59.826;30.108;2023-02-28T00:17:37;101243.38;;;3.74;70.55
78675;BME280;67990;59.826;30.108;2023-02-28T00:20:06;101246.91;;;3.73;70.30
78675;BME280;67990;59.826;30.108;2023-02-28T00:22:36;101220.38;;;3.99;69.92
78675;BME280;67990;59.826;30.108;2023-02-28T00:25:04;101224.78;;;4.14;69.65
78675;BME280;67990;59.826;30.108;2023-02-28T00:27:34;101228.66;;;3.90;69.78
78675;BME280;67990;59.826;30.108;2023-02-28T00:30:05;101223.94;;;4.14;69.85
78675;BME280;67990;59.826;30.108;2023-02-28T00:32:33;101208.16;;;4.01;69.71
78675;BME280;67990;59.826;30.108;2023-02-28T00:35:01;101203.13;;;4.14;69.27
78675;BME280;67990;59.826;30.108;2023-02-28T00:37:28;101204.72;;;4.16;69.30
78675;BME280;67990;59.826;30.108;2023-02-28T00:39:56;101222.25;;;4.13;69.06
78675;BME280;67990;59.826;30.108;2023-02-28T00:42:23;101212.50;;;4.01;70.03
78675;BME280;67990;59.826;30.108;2023-02-28T00:44:52;101210.00;;;4.15;69.53
78675;BME280;67990;59.826;30.108;2023-02-28T00:47:19;101204.28;;;4.08;69.40
78675;BME280;67990;59.826;30.108;2023-02-28T00:49:47;101195.91;;;4.03;69.78
78675;BME280;67990;59.826;30.108;2023-02-28T00:52:14;101197.00;;;4.15;69.22
78675;BME280;67990;59.826;30.108;2023-02-28T00:54:41;101201.81;;;4.22;69.54
78675;BME280;67990;59.826;30.108;2023-02-28T00:57:08;101198.19;;;4.09;69.63
78675;BME280;67990;59.826;30.108;2023-02-28T00:59:35;101190.91;;;4.16;69.14
78675;BME280;67990;59.826;30.108;2023-02-28T01:02:07;101193.00;;;4.25;69.54
78675;BME280;67990;59.826;30.108;2023-02-28T01:04:36;101185.34;;;4.37;68.60
78675;BME280;67990;59.826;30.108;2023-02-28T01:07:03;101177.66;;;4.51;68.17
78675;BME280;67990;59.826;30.108;2023-02-28T01:09:30;101182.34;;;4.45;68.58
78675;BME280;67990;59.826;30.108;2023-02-28T01:11:57;101171.56;;;4.66;67.46
78675;BME280;67990;59.826;30.108;2023-02-28T01:14:24;101184.00;;;4.61;67.53
78675;BME280;67990;59.826;30.108;2023-02-28T01:16:51;101177.81;;;4.33;68.23
78675;BME280;67990;59.826;30.108;2023-02-28T01:19:20;101169.28;;;4.46;68.18
78675;BME280;67990;59.826;30.108;2023-02-28T01:21:47;101177.81;;;4.48;68.10
78675;BME280;67990;59.826;30.108;2023-02-28T01:24:14;101165.66;;;4.49;68.29
78675;BME280;67990;59.826;30.108;2023-02-28T01:26:41;101177.81;;;4.48;68.03
78675;BME280;67990;59.826;30.108;2023-02-28T01:29:08;101178.97;;;4.43;68.58
78675;BME280;67990;59.826;30.108;2023-02-28T01:31:36;101164.44;;;4.54;67.97
78675;BME280;67990;59.826;30.108;2023-02-28T01:34:03;101162.38;;;4.61;67.90
78675;BME280;67990;59.826;30.108;2023-02-28T01:36:31;101157.03;;;4.33;68.32
78675;BME280;67990;59.826;30.108;2023-02-28T01:38:59;101153.31;;;4.52;68.32
78675;BME280;67990;59.826;30.108;2023-02-28T01:41:28;101140.56;;;4.32;68.23
78675;BME280;67990;59.826;30.108;2023-02-28T01:44:00;101148.63;;;4.43;68.56
78675;BME280;67990;59.826;30.108;2023-02-28T01:46:30;101144.59;;;4.38;68.21
78675;BME280;67990;59.826;30.108;2023-02-28T01:49:05;101133.22;;;4.54;67.93
78675;BME280;67990;59.826;30.108;2023-02-28T01:51:39;101128.22;;;4.51;67.76
78675;BME280;67990;59.826;30.108;2023-02-28T01:54:15;101132.31;;;4.55;67.77
78675;BME280;67990;59.826;30.108;2023-02-28T01:56:47;101129.44;;;4.60;67.78
78675;BME280;67990;59.826;30.108;2023-02-28T01:59:22;101119.56;;;4.51;68.27
78675;BME280;67990;59.826;30.108;2023-02-28T02:01:53;101126.69;;;4.63;67.94
78675;BME280;67990;59.826;30.108;2023-02-28T02:04:23;101120.22;;;4.54;67.96
78675;BME280;67990;59.826;30.108;2023-02-28T02:06:55;101124.78;;;4.51;67.87
78675;BME280;67990;59.826;30.108;2023-02-28T02:09:22;101112.94;;;4.45;68.60
78675;BME280;67990;59.826;30.108;2023-02-28T02:11:54;101118.88;;;4.63;67.89
78675;BME280;67990;59.826;30.108;2023-02-28T02:14:40;101118.38;;;4.56;67.95
78675;BME280;67990;59.826;30.108;2023-02-28T02:17:19;101114.81;;;4.73;67.33
78675;BME280;67990;59.826;30.108;2023-02-28T02:26:21;101109.88;;;4.68;67.62
78675;BME280;67990;59.826;30.108;2023-02-28T02:29:18;101118.91;;;4.77;66.88
78675;BME280;67990;59.826;30.108;2023-02-28T02:32:03;101111.31;;;4.58;66.85
78675;BME280;67990;59.826;30.108;2023-02-28T02:34:47;101109.66;;;4.57;67.43
78675;BME280;67990;59.826;30.108;2023-02-28T02:37:29;101118.16;;;4.30;68.35
78675;BME280;67990;59.826;30.108;2023-02-28T02:40:04;101098.13;;;4.32;68.14
78675;BME280;67990;59.826;30.108;2023-02-28T02:42:41;101112.09;;;4.60;67.65
78675;BME280;67990;59.826;30.108;2023-02-28T02:45:14;101116.53;;;4.58;67.12
78675;BME280;67990;59.826;30.108;2023-02-28T02:47:44;101114.03;;;4.57;67.71
78675;BME280;67990;59.826;30.108;2023-02-28T02:50:17;101115.88;;;4.55;67.35
78675;BME280;67990;59.826;30.108;2023-02-28T02:52:51;101092.28;;;4.58;67.79
78675;BME280;67990;59.826;30.108;2023-02-28T02:55:20;101101.03;;;4.57;67.47
78675;BME280;67990;59.826;30.108;2023-02-28T02:57:52;101102.78;;;4.56;67.62
78675;BME280;67990;59.826;30.108;2023-02-28T03:00:23;101079.97;;;4.46;67.51
78675;BME280;67990;59.826;30.108;2023-02-28T03:02:53;101087.34;;;4.53;67.53
78675;BME280;67990;59.826;30.108;2023-02-28T03:05:25;101084.06;;;4.50;67.92
78675;BME280;67990;59.826;30.108;2023-02-28T03:07:54;101073.09;;;4.45;67.66
78675;BME280;67990;59.826;30.108;2023-02-28T03:10:35;101061.78;;;4.46;67.37
78675;BME280;67990;59.826;30.108;2023-02-28T03:13:33;101068.69;;;4.31;68.17
78675;BME280;67990;59.826;30.108;2023-02-28T03:16:17;101060.47;;;4.23;68.17
78675;BME280;67990;59.826;30.108;2023-02-28T03:18:54;101049.97;;;4.25;68.52
78675;BME280;67990;59.826;30.108;2023-02-28T03:21:31;101057.78;;;4.25;68.80
78675;BME280;67990;59.826;30.108;2023-02-28T03:24:04;101063.81;;;4.25;68.01
78675;BME280;67990;59.826;30.108;2023-02-28T03:26:36;101046.81;;;4.04;68.57
78675;BME280;67990;59.826;30.108;2023-02-28T03:29:09;101037.50;;;4.00;68.70
78675;BME280;67990;59.826;30.108;2023-02-28T03:31:46;101065.63;;;4.09;68.96
78675;BME280;67990;59.826;30.108;2023-02-28T03:34:19;101061.91;;;4.13;69.11
78675;BME280;67990;59.826;30.108;2023-02-28T03:36:53;101067.53;;;4.06;68.96
78675;BME280;67990;59.826;30.108;2023-02-28T03:39:26;101059.00;;;4.04;69.15
78675;BME280;67990;59.826;30.108;2023-02-28T03:41:59;101059.31;;;4.13;68.90
78675;BME280;67990;59.826;30.108;2023-02-28T03:44:30;101061.41;;;4.07;68.79
78675;BME280;67990;59.826;30.108;2023-02-28T03:47:02;101061.22;;;4.10;68.81
78675;BME280;67990;59.826;30.108;2023-02-28T03:49:32;101043.81;;;4.12;69.13
78675;BME280;67990;59.826;30.108;2023-02-28T03:52:06;101056.56;;;4.01;69.14
78675;BME280;67990;59.826;30.108;2023-02-28T03:54:40;101046.56;;;4.09;69.07
78675;BME280;67990;59.826;30.108;2023-02-28T03:57:13;101038.94;;;3.90;69.44
78675;BME280;67990;59.826;30.108;2023-02-28T03:59:45;101051.69;;;4.10;69.08
78675;BME280;67990;59.826;30.108;2023-02-28T04:02:14;101045.81;;;4.07;69.19
78675;BME280;67990;59.826;30.108;2023-02-28T04:04:41;101041.94;;;4.14;68.78
78675;BME280;67990;59.826;30.108;2023-02-28T04:07:15;101045.91;;;4.05;69.40
78675;BME280;67990;59.826;30.108;2023-02-28T04:09:43;101052.50;;;4.11;68.98
78675;BME280;67990;59.826;30.108;2023-02-28T04:12:10;101055.22;;;4.09;69.38
78675;BME280;67990;59.826;30.108;2023-02-28T04:14:37;101051.16;;;4.19;69.31
78675;BME280;67990;59.826;30.108;2023-02-28T04:17:05;101057.47;;;4.15;69.51
78675;BME280;67990;59.826;30.108;2023-02-28T04:19:32;101058.72;;;4.24;68.95
78675;BME280;67990;59.826;30.108;2023-02-28T04:21:59;101064.16;;;4.19;69.20
78675;BME280;67990;59.826;30.108;2023-02-28T04:24:28;101070.03;;;4.23;69.00
78675;BME280;67990;59.826;30.108;2023-02-28T04:26:57;101067.69;;;4.18;69.46
78675;BME280;67990;59.826;30.108;2023-02-28T04:29:25;101066.41;;;4.25;69.32
78675;BME280;67990;59.826;30.108;2023-02-28T04:31:53;101064.91;;;4.21;69.08
78675;BME280;67990;59.826;30.108;2023-02-28T04:34:20;101063.22;;;4.20;68.94
78675;BME280;67990;59.826;30.108;2023-02-28T04:36:49;101049.22;;;4.38;68.52
78675;BME280;67990;59.826;30.108;2023-02-28T04:39:16;101051.09;;;4.21;68.52
78675;BME280;67990;59.826;30.108;2023-02-28T04:41:45;101032.72;;;4.24;68.25
78675;BME280;67990;59.826;30.108;2023-02-28T04:44:13;101056.72;;;4.43;68.52
78675;BME280;67990;59.826;30.108;2023-02-28T04:46:40;101048.44;;;4.36;67.79
78675;BME280;67990;59.826;30.108;2023-02-28T04:49:08;101050.91;;;4.24;68.82
78675;BME280;67990;59.826;30.108;2023-02-28T04:51:35;101053.47;;;4.39;68.53
78675;BME280;67990;59.826;30.108;2023-02-28T04:54:02;101049.38;;;4.35;67.91
78675;BME280;67990;59.826;30.108;2023-02-28T04:56:29;101048.59;;;4.33;68.25
78675;BME280;67990;59.826;30.108;2023-02-28T04:58:58;101046.28;;;4.29;68.26
78675;BME280;67990;59.826;30.108;2023-02-28T05:01:27;101042.28;;;4.23;68.85
78675;BME280;67990;59.826;30.108;2023-02-28T05:03:57;101043.31;;;4.35;68.23
78675;BME280;67990;59.826;30.108;2023-02-28T05:06:26;101029.31;;;4.37;68.17
78675;BME280;67990;59.826;30.108;2023-02-28T05:08:54;101036.09;;;4.40;68.72
78675;BME280;67990;59.826;30.108;2023-02-28T05:11:23;101031.56;;;4.43;68.36
78675;BME280;67990;59.826;30.108;2023-02-28T05:13:52;101042.53;;;4.48;67.90
78675;BME280;67990;59.826;30.108;2023-02-28T05:16:22;101030.84;;;4.26;68.77
78675;BME280;67990;59.826;30.108;2023-02-28T05:18:49;101028.75;;;4.32;68.00
78675;BME280;67990;59.826;30.108;2023-02-28T05:21:34;101024.19;;;4.36;68.61
78675;BME280;67990;59.826;30.108;2023-02-28T05:24:03;101025.97;;;4.35;68.32
78675;BME280;67990;59.826;30.108;2023-02-28T05:26:34;101033.31;;;4.43;67.92
78675;BME280;67990;59.826;30.108;2023-02-28T05:29:01;101032.31;;;4.45;68.12
78675;BME280;67990;59.826;30.108;2023-02-28T05:31:30;101048.13;;;4.56;67.95
78675;BME280;67990;59.826;30.108;2023-02-28T05:33:57;101027.88;;;4.47;67.50
78675;BME280;67990;59.826;30.108;2023-02-28T05:36:24;101035.59;;;4.33;67.95
78675;BME280;67990;59.826;30.108;2023-02-28T05:38:52;101039.38;;;4.43;67.81
78675;BME280;67990;59.826;30.108;2023-02-28T05:41:19;101051.78;;;4.68;67.36
78675;BME280;67990;59.826;30.108;2023-02-28T05:43:47;101044.06;;;4.66;67.23
78675;BME280;67990;59.826;30.108;2023-02-28T05:46:14;101043.19;;;4.52;67.24
78675;BME280;67990;59.826;30.108;2023-02-28T05:48:46;101041.59;;;4.49;67.91
78675;BME280;67990;59.826;30.108;2023-02-28T05:51:14;101058.84;;;4.66;67.22
78675;BME280;67990;59.826;30.108;2023-02-28T05:53:41;101055.56;;;4.62;67.38
78675;BME280;67990;59.826;30.108;2023-02-28T05:56:08;101059.72;;;4.80;66.61
78675;BME280;67990;59.826;30.108;2023-02-28T05:58:35;101075.25;;;4.82;66.71
78675;BME280;67990;59.826;30.108;2023-02-28T06:01:25;101064.47;;;4.88;66.76
78675;BME280;67990;59.826;30.108;2023-02-28T06:04:00;101047.34;;;4.70;66.20
78675;BME280;67990;59.826;30.108;2023-02-28T06:06:27;101071.72;;;4.83;66.17
78675;BME280;67990;59.826;30.108;2023-02-28T06:08:55;101082.88;;;4.85;65.94
78675;BME280;67990;59.826;30.108;2023-02-28T06:11:23;101086.69;;;4.79;66.56
78675;BME280;67990;59.826;30.108;2023-02-28T06:13:53;101106.28;;;4.85;66.65
78675;BME280;67990;59.826;30.108;2023-02-28T06:16:21;101108.50;;;4.77;66.32
78675;BME280;67990;59.826;30.108;2023-02-28T06:18:48;101128.13;;;4.53;66.76
78675;BME280;67990;59.826;30.108;2023-02-28T06:21:16;101123.22;;;4.62;65.82
78675;BME280;67990;59.826;30.108;2023-02-28T06:23:44;101129.47;;;4.44;66.00
78675;BME280;67990;59.826;30.108;2023-02-28T06:26:11;101137.38;;;4.27;66.35
78675;BME280;67990;59.826;30.108;2023-02-28T06:28:38;101137.53;;;4.24;66.70
78675;BME280;67990;59.826;30.108;2023-02-28T06:31:06;101147.69;;;4.44;66.08
78675;BME280;67990;59.826;30.108;2023-02-28T06:33:34;101149.34;;;4.45;66.39
78675;BME280;67990;59.826;30.108;2023-02-28T06:36:02;101153.56;;;4.32;66.53
78675;BME280;67990;59.826;30.108;2023-02-28T06:38:30;101143.16;;;4.32;66.51
78675;BME280;67990;59.826;30.108;2023-02-28T06:40:59;101158.88;;;4.46;65.98
78675;BME280;67990;59.826;30.108;2023-02-28T06:43:28;101156.50;;;4.42;65.55
78675;BME280;67990;59.826;30.108;2023-02-28T06:45:55;101168.50;;;4.44;65.56
78675;BME280;67990;59.826;30.108;2023-02-28T06:48:23;101168.25;;;4.49;64.79
78675;BME280;67990;59.826;30.108;2023-02-28T06:50:51;101163.22;;;4.30;64.49
78675;BME280;67990;59.826;30.108;2023-02-28T06:53:18;101189.75;;;4.37;64.51
78675;BME280;67990;59.826;30.108;2023-02-28T06:55:47;101193.25;;;4.20;63.88
78675;BME280;67990;59.826;30.108;2023-02-28T06:58:14;101209.19;;;4.14;63.50
78675;BME280;67990;59.826;30.108;2023-02-28T07:00:45;101205.44;;;4.20;63.12
78675;BME280;67990;59.826;30.108;2023-02-28T07:03:13;101215.47;;;4.41;62.14
78675;BME280;67990;59.826;30.108;2023-02-28T07:05:41;101225.66;;;4.30;61.41
78675;BME280;67990;59.826;30.108;2023-02-28T07:08:09;101223.78;;;4.32;60.96
78675;BME280;67990;59.826;30.108;2023-02-28T07:10:37;101227.16;;;4.34;60.09
78675;BME280;67990;59.826;30.108;2023-02-28T07:13:07;101227.03;;;4.20;59.32
78675;BME280;67990;59.826;30.108;2023-02-28T07:15:35;101245.38;;;4.34;58.50
78675;BME280;67990;59.826;30.108;2023-02-28T07:18:02;101252.03;;;4.23;58.00
78675;BME280;67990;59.826;30.108;2023-02-28T07:20:30;101244.94;;;4.26;57.10
78675;BME280;67990;59.826;30.108;2023-02-28T07:22:57;101264.72;;;4.13;56.39
78675;BME280;67990;59.826;30.108;2023-02-28T07:25:26;101269.47;;;3.88;56.95
78675;BME280;67990;59.826;30.108;2023-02-28T07:27:54;101281.53;;;4.06;56.19
78675;BME280;67990;59.826;30.108;2023-02-28T07:30:23;101289.97;;;3.94;56.53
78675;BME280;67990;59.826;30.108;2023-02-28T07:32:50;101294.16;;;3.97;55.92
78675;BME280;67990;59.826;30.108;2023-02-28T07:35:17;101285.97;;;4.04;56.26
78675;BME280;67990;59.826;30.108;2023-02-28T07:37:44;101274.53;;;3.91;56.25
78675;BME280;67990;59.826;30.108;2023-02-28T07:40:13;101270.19;;;3.92;55.67
78675;BME280;67990;59.826;30.108;2023-02-28T07:42:41;101269.94;;;3.96;55.37
78675;BME280;67990;59.826;30.108;2023-02-28T07:45:10;101273.91;;;4.03;55.19
78675;BME280;67990;59.826;30.108;2023-02-28T07:47:39;101272.19;;;4.19;54.74
78675;BME280;67990;59.826;30.108;2023-02-28T07:50:08;101273.91;;;4.19;54.34
78675;BME280;67990;59.826;30.108;2023-02-28T07:52:36;101262.00;;;4.15;53.95
78675;BME280;67990;59.826;30.108;2023-02-28T07:55:04;101262.72;;;4.34;53.45
78675;BME280;67990;59.826;30.108;2023-02-28T07:57:31;101249.63;;;4.35;52.93
78675;BME280;67990;59.826;30.108;2023-02-28T07:59:58;101256.66;;;4.33;53.10
78675;BME280;67990;59.826;30.108;2023-02-28T08:02:25;101230.78;;;3.99;53.35
78675;BME280;67990;59.826;30.108;2023-02-28T08:04:54;101245.63;;;3.97;54.32
78675;BME280;67990;59.826;30.108;2023-02-28T08:07:21;101261.84;;;4.18;52.68
78675;BME280;67990;59.826;30.108;2023-02-28T08:09:49;101269.00;;;4.30;51.72
78675;BME280;67990;59.826;30.108;2023-02-28T08:12:16;101260.47;;;4.28;52.19
78675;BME280;67990;59.826;30.108;2023-02-28T08:14:43;101254.56;;;4.24;51.90
78675;BME280;67990;59.826;30.108;2023-02-28T08:17:10;101250.97;;;4.27;51.68
78675;BME280;67990;59.826;30.108;2023-02-28T08:19:38;101260.91;;;4.19;52.56
78675;BME280;67990;59.826;30.108;2023-02-28T08:22:06;101256.72;;;4.16;52.25
78675;BME280;67990;59.826;30.108;2023-02-28T08:24:33;101265.09;;;4.06;52.96
78675;BME280;67990;59.826;30.108;2023-02-28T08:27:01;101266.91;;;4.21;52.29
78675;BME280;67990;59.826;30.108;2023-02-28T08:29:28;101275.44;;;4.23;52.33
78675;BME280;67990;59.826;30.108;2023-02-28T08:31:55;101261.69;;;4.05;52.02
78675;BME280;67990;59.826;30.108;2023-02-28T08:34:24;101267.06;;;4.18;51.92
78675;BME280;67990;59.826;30.108;2023-02-28T08:36:51;101265.56;;;4.29;51.30
78675;BME280;67990;59.826;30.108;2023-02-28T08:39:20;101267.09;;;4.01;52.97
